Pagina principale
METAR-TAF:

METAR-TAF

Aeroporti :

Ngaoundéré, Camerun

latitudine: 07-21N, longitudine: 013-34E, altezza: 1114 m

Osservazione

Il bollettino è stato emesso 59 minuti fa, alle 12:00 UTC
Vento calmo
Temperature 22°C
Umidità 73%
Pressione 1019 hPa
Visibilità 10 km o più
Poco nuvoloso ad un'altezza di 1300 ft
pioggia debole

METAR: FKKN 271200Z 00000KT 9999 -RA FEW013 22/17 Q1019

Ora: 13:59 (12:59 UTC)


TAF: mancante

Osservazioni e previsioni meteorologiche di più di 4000 aeroporti (messaggi METAR e TAF).

Le stazioni disponibili sono rappresentate dai dischi gialli e rossi sulla carta.

Puntare il mouse per vedere il nome della stazione.

Clicca sopra per visualizzare le osservazioni e previsioni meteorologiche.

Per cambiare la mappa : fare clic sui pulsanti verdi con una croce nera per ingrandire, il pulsante verde con un trattino per diminuire, o sulla freccia verde per le mappe adiacenti.


METAR-TAF: